Time;durP1;ratioP1;P1;durP2;ratioP2;P2;SDS_P1;SDS_P2;PMS_P1;PMS_P2;Temp;Humidity;BMP_temperature;BMP_pressure;BME280_temperature;BME280_humidity;BME280_pressure;Samples;Min_cycle;Max_cycle;Signal;HPM_P1;HPM_P2
2023/01/02 00:01:03;;;;;;;2.50;1.60;;;;;;;;;;5111421;28;20217;-77
2023/01/02 00:03:30;;;;;;;2.47;1.77;;;;;;;;;;5111522;28;20205;-79
2023/01/02 00:05:57;;;;;;;1.77;1.60;;;;;;;;;;5111858;28;20232;-80
2023/01/02 00:08:24;;;;;;;2.07;1.60;;;;;;;;;;5111240;28;20225;-80
2023/01/02 00:10:52;;;;;;;1.97;1.70;;;;;;;;;;5110826;28;20633;-80
2023/01/02 00:13:19;;;;;;;3.53;1.80;;;;;;;;;;5111865;28;20228;-80
2023/01/02 00:15:47;;;;;;;3.10;1.70;;;;;;;;;;5111067;28;20252;-80
2023/01/02 00:18:15;;;;;;;2.20;1.67;;;;;;;;;;5111428;28;20201;-80
2023/01/02 00:20:42;;;;;;;2.40;1.90;;;;;;;;;;5111167;28;20217;-80
2023/01/02 00:23:09;;;;;;;2.10;1.90;;;;;;;;;;5111737;28;20280;-80
2023/01/02 00:25:36;;;;;;;2.20;2.00;;;;;;;;;;5110983;28;20689;-80
2023/01/02 00:28:04;;;;;;;2.80;2.47;;;;;;;;;;5111180;28;20198;-80
2023/01/02 00:30:31;;;;;;;3.20;2.40;;;;;;;;;;5111244;28;20229;-80
2023/01/02 00:32:59;;;;;;;2.20;2.00;;;;;;;;;;5111286;28;20270;-80
2023/01/02 00:35:27;;;;;;;2.20;2.00;;;;;;;;;;5110935;28;20272;-80
2023/01/02 00:37:54;;;;;;;1.90;1.80;;;;;;;;;;5111370;28;20624;-80
2023/01/02 00:40:21;;;;;;;2.37;2.17;;;;;;;;;;5110798;28;20224;-80
2023/01/02 00:42:48;;;;;;;2.30;2.10;;;;;;;;;;5111528;28;20198;-80
2023/01/02 00:45:15;;;;;;;2.57;2.23;;;;;;;;;;5111220;28;20198;-80
2023/01/02 00:47:43;;;;;;;2.33;2.13;;;;;;;;;;5112021;28;20325;-80
2023/01/02 00:50:11;;;;;;;2.43;2.23;;;;;;;;;;5115137;28;20190;-80
2023/01/02 00:52:38;;;;;;;2.40;2.20;;;;;;;;;;5114824;28;20236;-80
2023/01/02 00:55:06;;;;;;;2.30;2.10;;;;;;;;;;5114136;28;20225;-80
2023/01/02 00:57:33;;;;;;;2.20;2.00;;;;;;;;;;5114870;28;20810;-80
2023/01/02 01:00:00;;;;;;;2.80;2.03;;;;;;;;;;5114360;28;20217;-79
2023/01/02 01:02:27;;;;;;;2.73;2.00;;;;;;;;;;5114629;28;20232;-80
2023/01/02 01:04:55;;;;;;;3.10;2.07;;;;;;;;;;5114557;28;20221;-79
2023/01/02 01:07:23;;;;;;;2.87;2.57;;;;;;;;;;5114156;28;20639;-79
2023/01/02 01:09:50;;;;;;;4.13;2.33;;;;;;;;;;5114048;28;20310;-80
2023/01/02 01:12:17;;;;;;;2.40;2.20;;;;;;;;;;5114471;28;20229;-80
2023/01/02 01:14:45;;;;;;;2.83;2.20;;;;;;;;;;5114711;28;20706;-80
2023/01/02 01:17:12;;;;;;;3.17;2.27;;;;;;;;;;5114550;28;20658;-80
2023/01/02 01:19:39;;;;;;;3.67;1.93;;;;;;;;;;5114263;28;20225;-79
2023/01/02 01:22:06;;;;;;;3.97;1.70;;;;;;;;;;5114158;28;20653;-80
2023/01/02 01:24:35;;;;;;;2.70;2.00;;;;;;;;;;5114140;28;20229;-81
2023/01/02 01:27:02;;;;;;;3.70;1.90;;;;;;;;;;5114585;28;20661;-80
2023/01/02 01:29:29;;;;;;;4.10;1.47;;;;;;;;;;5114780;28;20190;-79
2023/01/02 01:31:56;;;;;;;2.50;1.57;;;;;;;;;;5113669;28;20225;-80
2023/01/02 01:34:24;;;;;;;3.37;1.77;;;;;;;;;;5114050;28;20233;-78
2023/01/02 01:36:51;;;;;;;3.10;1.80;;;;;;;;;;5114095;28;20314;-78
2023/01/02 01:39:18;;;;;;;3.73;1.77;;;;;;;;;;5114476;28;20248;-78
2023/01/02 01:41:46;;;;;;;3.43;1.87;;;;;;;;;;5117692;28;20226;-77
2023/01/02 01:44:32;;;;;;;4.17;1.80;;;;;;;;;;5115656;28;20707;-76
2023/01/02 01:46:59;;;;;;;4.90;1.77;;;;;;;;;;5112922;28;20256;-75
2023/01/02 01:49:27;;;;;;;3.37;1.60;;;;;;;;;;5113289;28;20670;-78
2023/01/02 01:51:56;;;;;;;3.63;1.70;;;;;;;;;;5114496;28;20232;-76
2023/01/02 01:54:26;;;;;;;2.73;1.43;;;;;;;;;;5114188;28;20225;-77
2023/01/02 01:56:57;;;;;;;5.70;1.93;;;;;;;;;;5113952;28;20265;-75
2023/01/02 01:59:24;;;;;;;2.47;1.50;;;;;;;;;;5112290;28;20669;-76
2023/01/02 02:01:52;;;;;;;5.07;1.60;;;;;;;;;;5113131;28;20632;-77
2023/01/02 02:04:21;;;;;;;4.57;2.10;;;;;;;;;;5113589;28;20221;-77
2023/01/02 02:06:49;;;;;;;2.87;1.70;;;;;;;;;;5113414;28;20202;-77
2023/01/02 02:09:18;;;;;;;4.87;1.70;;;;;;;;;;5112764;28;20194;-78
2023/01/02 02:11:45;;;;;;;3.97;1.93;;;;;;;;;;5112932;28;20229;-79
2023/01/02 02:14:14;;;;;;;2.87;1.50;;;;;;;;;;5113375;28;20240;-79
2023/01/02 02:16:44;;;;;;;3.00;1.47;;;;;;;;;;5113266;28;20318;-79
2023/01/02 02:19:25;;;;;;;3.13;1.63;;;;;;;;;;5112822;28;20285;-79
2023/01/02 02:22:05;;;;;;;2.23;1.57;;;;;;;;;;5112545;28;20284;-79
2023/01/02 02:24:48;;;;;;;2.63;1.63;;;;;;;;;;5113122;28;20228;-79
2023/01/02 02:27:26;;;;;;;2.70;1.40;;;;;;;;;;5113202;28;20251;-79
2023/01/02 02:29:59;;;;;;;3.80;1.40;;;;;;;;;;5112790;28;20726;-79
2023/01/02 02:32:30;;;;;;;3.70;1.80;;;;;;;;;;5112851;28;20208;-80
2023/01/02 02:35:00;;;;;;;2.87;1.80;;;;;;;;;;5112955;28;20281;-79
2023/01/02 02:37:32;;;;;;;2.00;1.70;;;;;;;;;;5112664;28;20226;-79
2023/01/02 02:40:03;;;;;;;3.00;1.60;;;;;;;;;;5112849;28;20689;-79
2023/01/02 02:42:36;;;;;;;3.13;1.67;;;;;;;;;;5112773;28;20214;-79
2023/01/02 02:45:09;;;;;;;1.90;1.50;;;;;;;;;;5112581;28;20197;-79
2023/01/02 02:47:44;;;;;;;2.90;2.10;;;;;;;;;;5112656;28;20235;-79
2023/01/02 02:50:12;;;;;;;2.83;2.00;;;;;;;;;;5111542;28;20662;-79
2023/01/02 02:52:44;;;;;;;3.10;1.90;;;;;;;;;;5112690;28;20285;-80
2023/01/02 02:55:13;;;;;;;3.30;1.50;;;;;;;;;;5112217;28;20214;-79
2023/01/02 02:57:40;;;;;;;2.13;1.67;;;;;;;;;;5112568;28;20320;-79
2023/01/02 03:00:12;;;;;;;2.43;1.70;;;;;;;;;;5112035;28;20225;-79
2023/01/02 03:02:40;;;;;;;2.20;1.90;;;;;;;;;;5112458;28;20236;-79
2023/01/02 03:05:08;;;;;;;3.87;2.00;;;;;;;;;;5111972;28;20221;-79
2023/01/02 03:07:39;;;;;;;2.60;1.70;;;;;;;;;;5112358;28;20229;-79
2023/01/02 03:10:12;;;;;;;2.93;1.47;;;;;;;;;;5112091;28;20267;-80
2023/01/02 03:12:44;;;;;;;2.30;1.60;;;;;;;;;;5111775;28;20930;-79
2023/01/02 03:15:19;;;;;;;2.10;1.20;;;;;;;;;;5111933;28;20247;-80
2023/01/02 03:17:54;;;;;;;3.23;1.60;;;;;;;;;;5111994;28;20224;-79
2023/01/02 03:20:25;;;;;;;5.83;1.57;;;;;;;;;;5111941;28;20239;-80
2023/01/02 03:22:54;;;;;;;2.80;1.50;;;;;;;;;;5112006;28;20198;-80
2023/01/02 03:25:22;;;;;;;2.50;1.60;;;;;;;;;;5111984;28;20229;-80
2023/01/02 03:27:51;;;;;;;2.40;1.70;;;;;;;;;;5112318;28;20263;-80
2023/01/02 03:30:20;;;;;;;2.87;1.50;;;;;;;;;;5111559;28;20233;-80
2023/01/02 03:32:51;;;;;;;2.77;1.43;;;;;;;;;;5112291;28;20194;-80
2023/01/02 03:35:20;;;;;;;2.57;1.60;;;;;;;;;;5097803;28;20202;-79
2023/01/02 03:37:49;;;;;;;3.63;1.50;;;;;;;;;;5091820;28;20316;-79
2023/01/02 03:40:19;;;;;;;3.70;1.50;;;;;;;;;;5091573;28;20268;-80
2023/01/02 03:42:51;;;;;;;2.33;1.30;;;;;;;;;;5092034;28;20285;-80
2023/01/02 03:45:23;;;;;;;2.83;1.60;;;;;;;;;;5091346;28;20198;-80
2023/01/02 03:47:53;;;;;;;2.93;1.43;;;;;;;;;;5090591;28;20230;-80
2023/01/02 03:50:21;;;;;;;2.93;1.57;;;;;;;;;;5090908;28;20230;-80
2023/01/02 03:52:49;;;;;;;4.10;1.30;;;;;;;;;;5091565;28;20259;-80
2023/01/02 03:55:16;;;;;;;4.00;1.40;;;;;;;;;;5091212;28;20218;-80
2023/01/02 03:57:48;;;;;;;3.47;1.50;;;;;;;;;;5090806;28;20250;-80
2023/01/02 04:00:17;;;;;;;2.83;1.43;;;;;;;;;;5091479;28;20233;-80
2023/01/02 04:02:49;;;;;;;4.30;1.57;;;;;;;;;;5090926;28;20237;-80
2023/01/02 04:05:19;;;;;;;3.80;1.60;;;;;;;;;;5091535;28;20226;-79
2023/01/02 04:07:49;;;;;;;3.87;1.43;;;;;;;;;;5091109;28;20194;-80
2023/01/02 04:10:17;;;;;;;4.37;1.60;;;;;;;;;;5092042;28;20248;-80
2023/01/02 04:12:46;;;;;;;3.80;1.50;;;;;;;;;;5091004;28;20229;-80
2023/01/02 04:15:14;;;;;;;2.10;1.27;;;;;;;;;;5090676;28;20234;-80
2023/01/02 04:17:44;;;;;;;2.73;1.17;;;;;;;;;;5090483;28;20322;-80
2023/01/02 04:20:15;;;;;;;3.37;1.20;;;;;;;;;;5091202;28;20248;-80
2023/01/02 04:22:44;;;;;;;5.83;1.20;;;;;;;;;;5092226;28;20627;-80
2023/01/02 04:25:13;;;;;;;2.60;1.30;;;;;;;;;;5105218;28;20277;-80
2023/01/02 04:27:43;;;;;;;2.70;1.20;;;;;;;;;;5115375;28;20209;-80
2023/01/02 04:30:11;;;;;;;2.63;1.27;;;;;;;;;;5115140;28;20697;-80
2023/01/02 04:32:39;;;;;;;5.40;1.20;;;;;;;;;;5114846;28;20229;-80
2023/01/02 04:35:07;;;;;;;3.60;1.37;;;;;;;;;;5114940;28;20194;-80
2023/01/02 04:37:37;;;;;;;2.67;1.07;;;;;;;;;;5115408;28;20257;-80
2023/01/02 04:40:06;;;;;;;2.33;1.20;;;;;;;;;;5115374;28;20202;-80
2023/01/02 04:42:33;;;;;;;3.43;1.10;;;;;;;;;;5115163;28;20221;-80
2023/01/02 04:45:00;;;;;;;2.30;1.13;;;;;;;;;;5114882;28;20241;-80
2023/01/02 04:47:28;;;;;;;2.07;1.00;;;;;;;;;;5114161;28;20258;-79
2023/01/02 04:49:55;;;;;;;2.50;1.20;;;;;;;;;;5115043;28;20618;-79
2023/01/02 04:52:22;;;;;;;2.00;1.20;;;;;;;;;;5115026;28;20190;-80
2023/01/02 04:54:51;;;;;;;2.23;1.10;;;;;;;;;;5114595;28;20190;-80
2023/01/02 04:57:18;;;;;;;2.50;1.20;;;;;;;;;;5114860;28;20257;-79
2023/01/02 04:59:45;;;;;;;3.67;1.13;;;;;;;;;;5114856;28;20221;-79
2023/01/02 05:02:12;;;;;;;3.07;1.17;;;;;;;;;;5114042;28;20226;-80
2023/01/02 05:04:39;;;;;;;2.30;1.07;;;;;;;;;;5114012;28;20217;-79
2023/01/02 05:07:07;;;;;;;3.83;1.30;;;;;;;;;;5114334;28;20270;-80
2023/01/02 05:09:34;;;;;;;2.33;1.10;;;;;;;;;;5114772;28;20217;-80
2023/01/02 05:12:02;;;;;;;2.60;0.97;;;;;;;;;;5115049;28;20224;-79
2023/01/02 05:14:30;;;;;;;1.83;1.10;;;;;;;;;;5113923;28;20742;-80
2023/01/02 05:16:57;;;;;;;2.10;1.00;;;;;;;;;;5113873;28;20261;-81
2023/01/02 05:19:24;;;;;;;1.63;0.90;;;;;;;;;;5114316;28;20217;-80
2023/01/02 05:24:37;;;;;;;4.47;1.10;;;;;;;;;;5114392;28;20205;-79
2023/01/02 05:27:05;;;;;;;1.47;1.10;;;;;;;;;;5114144;28;20225;-80
2023/01/02 05:29:32;;;;;;;3.00;1.30;;;;;;;;;;5113897;28;20277;-80
2023/01/02 05:32:00;;;;;;;4.50;1.50;;;;;;;;;;5114001;28;20228;-79
2023/01/02 05:34:27;;;;;;;5.90;1.70;;;;;;;;;;5113788;28;20576;-80
2023/01/02 05:36:54;;;;;;;3.77;1.60;;;;;;;;;;5113650;28;20274;-80
2023/01/02 05:39:21;;;;;;;3.20;1.30;;;;;;;;;;5114030;28;20251;-80
2023/01/02 05:41:48;;;;;;;3.17;1.17;;;;;;;;;;5114128;28;20201;-80
2023/01/02 05:44:17;;;;;;;3.33;1.27;;;;;;;;;;5113473;28;20241;-80
2023/01/02 05:46:44;;;;;;;4.47;1.47;;;;;;;;;;5113487;28;20225;-80
2023/01/02 05:49:11;;;;;;;2.67;1.30;;;;;;;;;;5113709;28;20622;-80
2023/01/02 05:51:39;;;;;;;2.40;1.37;;;;;;;;;;5113605;28;20228;-79
2023/01/02 05:54:06;;;;;;;2.80;1.23;;;;;;;;;;5113987;28;20221;-79
2023/01/02 05:56:33;;;;;;;3.10;1.60;;;;;;;;;;5114091;28;20225;-79
2023/01/02 05:59:00;;;;;;;4.97;1.87;;;;;;;;;;5113142;28;20705;-78
2023/01/02 06:01:30;;;;;;;2.37;1.50;;;;;;;;;;5113650;28;20198;-79
2023/01/02 06:03:58;;;;;;;2.13;1.30;;;;;;;;;;5113486;28;20229;-78
2023/01/02 06:06:26;;;;;;;2.17;1.97;;;;;;;;;;5113957;28;20220;-78
2023/01/02 06:08:54;;;;;;;3.87;1.67;;;;;;;;;;5113618;28;20259;-78
2023/01/02 06:11:21;;;;;;;4.17;1.70;;;;;;;;;;5113141;28;20248;-79
2023/01/02 06:13:48;;;;;;;5.03;1.83;;;;;;;;;;5112752;28;20226;-79
2023/01/02 06:16:16;;;;;;;2.63;1.43;;;;;;;;;;5113513;28;20224;-78
2023/01/02 06:18:44;;;;;;;6.07;2.17;;;;;;;;;;5113122;28;20320;-79
2023/01/02 06:21:12;;;;;;;6.37;2.50;;;;;;;;;;5112864;28;20599;-79
2023/01/02 06:23:40;;;;;;;5.37;2.27;;;;;;;;;;5113242;28;20232;-82
2023/01/02 06:26:08;;;;;;;4.93;1.63;;;;;;;;;;5113411;28;20277;-79
2023/01/02 06:28:35;;;;;;;3.43;1.47;;;;;;;;;;5112827;28;20225;-79
2023/01/02 06:31:03;;;;;;;3.20;1.70;;;;;;;;;;5105742;28;20281;-75
2023/01/02 06:33:31;;;;;;;4.47;2.03;;;;;;;;;;5095769;28;20639;-76
2023/01/02 06:36:00;;;;;;;6.60;1.80;;;;;;;;;;5106285;28;20745;-77
2023/01/02 06:38:28;;;;;;;5.87;2.70;;;;;;;;;;5112289;28;20291;-77
2023/01/02 06:40:55;;;;;;;5.93;2.27;;;;;;;;;;5112601;28;20236;-77
2023/01/02 06:43:22;;;;;;;5.03;2.27;;;;;;;;;;5112115;28;20220;-78
2023/01/02 06:45:50;;;;;;;6.70;2.30;;;;;;;;;;5111828;28;20236;-76
2023/01/02 06:48:17;;;;;;;5.43;1.80;;;;;;;;;;5112896;28;20232;-75
2023/01/02 06:50:45;;;;;;;5.53;2.00;;;;;;;;;;5112335;28;20239;-77
2023/01/02 06:53:13;;;;;;;5.47;2.00;;;;;;;;;;5112628;28;20216;-76
2023/01/02 06:55:41;;;;;;;5.63;2.10;;;;;;;;;;5112416;28;20229;-76
2023/01/02 06:58:08;;;;;;;5.07;1.97;;;;;;;;;;5112170;28;20748;-77
2023/01/02 07:00:35;;;;;;;6.07;2.07;;;;;;;;;;5113061;28;20217;-77
2023/01/02 07:03:02;;;;;;;5.77;2.00;;;;;;;;;;5112170;28;20236;-76
2023/01/02 07:05:29;;;;;;;6.03;2.00;;;;;;;;;;5111771;28;20284;-77
2023/01/02 07:07:57;;;;;;;6.27;2.30;;;;;;;;;;5104340;28;20736;-77
2023/01/02 07:10:25;;;;;;;5.63;2.30;;;;;;;;;;5101404;28;20201;-76
2023/01/02 07:12:52;;;;;;;9.40;2.50;;;;;;;;;;5111627;28;20237;-76
2023/01/02 07:15:19;;;;;;;9.80;2.87;;;;;;;;;;5111532;28;20682;-76
2023/01/02 07:17:47;;;;;;;7.70;2.40;;;;;;;;;;5112330;28;20229;-78
2023/01/02 07:20:14;;;;;;;8.40;2.97;;;;;;;;;;5111777;28;20736;-77
2023/01/02 07:22:41;;;;;;;8.07;2.37;;;;;;;;;;5091706;28;20226;-78
2023/01/02 07:25:09;;;;;;;7.43;2.53;;;;;;;;;;5091493;28;20293;-76
2023/01/02 07:27:38;;;;;;;7.37;2.40;;;;;;;;;;5100445;28;20288;-76
2023/01/02 07:30:05;;;;;;;10.63;2.50;;;;;;;;;;5111799;28;20217;-77
2023/01/02 07:32:32;;;;;;;10.97;3.40;;;;;;;;;;5111428;28;20225;-77
2023/01/02 07:34:59;;;;;;;12.57;2.73;;;;;;;;;;5111625;28;20277;-76
2023/01/02 07:37:27;;;;;;;10.37;3.40;;;;;;;;;;5111606;28;20224;-77
2023/01/02 07:39:54;;;;;;;7.67;3.53;;;;;;;;;;5110850;28;20307;-78
2023/01/02 07:42:21;;;;;;;7.87;3.27;;;;;;;;;;5111279;28;20292;-77
2023/01/02 07:44:50;;;;;;;9.83;3.40;;;;;;;;;;5110655;28;20244;-76
2023/01/02 07:47:17;;;;;;;11.33;2.87;;;;;;;;;;5111175;28;20230;-77
2023/01/02 07:49:44;;;;;;;13.63;3.50;;;;;;;;;;5111323;28;20232;-78
2023/01/02 07:52:12;;;;;;;11.07;3.13;;;;;;;;;;5111147;28;20786;-78
2023/01/02 07:54:39;;;;;;;11.97;3.13;;;;;;;;;;5110828;28;20235;-77
2023/01/02 07:57:06;;;;;;;10.30;4.27;;;;;;;;;;5111981;28;20248;-78
2023/01/02 07:59:33;;;;;;;14.43;6.37;;;;;;;;;;5115971;28;20248;-76
2023/01/02 08:02:02;;;;;;;11.87;5.10;;;;;;;;;;5114722;28;20229;-78
2023/01/02 08:04:29;;;;;;;11.97;3.23;;;;;;;;;;5115731;28;20231;-77
2023/01/02 08:06:56;;;;;;;9.30;3.40;;;;;;;;;;5115413;28;20748;-77
2023/01/02 08:09:23;;;;;;;6.13;2.70;;;;;;;;;;5114936;28;20746;-77
2023/01/02 08:11:50;;;;;;;11.30;3.57;;;;;;;;;;5115276;28;20284;-77
2023/01/02 08:14:18;;;;;;;12.10;4.80;;;;;;;;;;5115818;28;20197;-77
2023/01/02 08:16:45;;;;;;;11.50;4.33;;;;;;;;;;5114950;28;20295;-77
2023/01/02 08:19:13;;;;;;;9.17;3.80;;;;;;;;;;5114695;28;20315;-77
2023/01/02 08:21:41;;;;;;;9.70;3.07;;;;;;;;;;5115213;28;20613;-78
2023/01/02 08:24:08;;;;;;;11.80;3.80;;;;;;;;;;5115136;28;20197;-77
2023/01/02 08:26:35;;;;;;;11.80;4.17;;;;;;;;;;5115186;28;20236;-78
2023/01/02 08:29:03;;;;;;;9.50;4.30;;;;;;;;;;5115078;28;20552;-79
2023/01/02 08:31:30;;;;;;;11.57;4.20;;;;;;;;;;5115283;28;20193;-77
2023/01/02 08:33:57;;;;;;;8.47;4.13;;;;;;;;;;5115649;28;20224;-78
2023/01/02 08:36:26;;;;;;;9.57;4.40;;;;;;;;;;5114629;28;20223;-77
2023/01/02 08:38:53;;;;;;;11.40;3.83;;;;;;;;;;5114322;28;20324;-78
2023/01/02 08:41:33;;;;;;;10.27;3.40;;;;;;;;;;5115091;28;20250;-78
2023/01/02 08:44:00;;;;;;;9.87;3.90;;;;;;;;;;5114408;28;20242;-77
2023/01/02 08:46:28;;;;;;;13.27;5.43;;;;;;;;;;5114472;28;20205;-78
2023/01/02 08:48:55;;;;;;;18.50;6.90;;;;;;;;;;5109250;28;20226;-78
2023/01/02 08:51:22;;;;;;;16.67;6.87;;;;;;;;;;5113691;28;20236;-78
2023/01/02 08:53:50;;;;;;;11.43;5.43;;;;;;;;;;5114366;28;20267;-79
2023/01/02 08:56:22;;;;;;;14.30;6.77;;;;;;;;;;5113986;28;20288;-78
2023/01/02 08:58:53;;;;;;;13.10;6.37;;;;;;;;;;5114229;28;20320;-78
2023/01/02 09:01:21;;;;;;;12.17;5.63;;;;;;;;;;5114686;28;20293;-77
2023/01/02 09:03:49;;;;;;;10.83;4.03;;;;;;;;;;5114071;28;20722;-78
2023/01/02 09:06:16;;;;;;;6.93;3.80;;;;;;;;;;5114188;28;20221;-78
2023/01/02 09:08:43;;;;;;;6.80;3.30;;;;;;;;;;5113828;28;20281;-78
2023/01/02 09:11:13;;;;;;;6.63;3.00;;;;;;;;;;5114321;28;20293;-78
2023/01/02 09:13:40;;;;;;;6.53;3.08;;;;;;;;;;5114364;28;20217;-77
2023/01/02 09:16:08;;;;;;;6.47;2.90;;;;;;;;;;5113983;28;20227;-76
2023/01/02 09:18:35;;;;;;;8.70;2.85;;;;;;;;;;5114006;28;20312;-77
2023/01/02 09:21:02;;;;;;;4.07;1.90;;;;;;;;;;5113714;28;20193;-77
2023/01/02 09:23:30;;;;;;;8.23;2.78;;;;;;;;;;5113299;28;20198;-78
2023/01/02 09:25:58;;;;;;;5.85;2.00;;;;;;;;;;5113114;28;20218;-78
2023/01/02 09:28:27;;;;;;;6.03;2.03;;;;;;;;;;5113514;28;20202;-77
2023/01/02 09:30:56;;;;;;;5.68;2.03;;;;;;;;;;5113508;28;20568;-78
2023/01/02 09:33:24;;;;;;;5.38;2.00;;;;;;;;;;5104992;28;20202;-77
2023/01/02 09:35:51;;;;;;;6.85;2.00;;;;;;;;;;5093415;28;20229;-78
2023/01/02 09:38:18;;;;;;;8.43;2.38;;;;;;;;;;5113064;28;20237;-77
2023/01/02 09:40:47;;;;;;;6.20;2.60;;;;;;;;;;5113336;28;20202;-77
2023/01/02 09:43:15;;;;;;;5.63;2.28;;;;;;;;;;5113693;28;20232;-78
2023/01/02 09:45:44;;;;;;;4.32;1.85;;;;;;;;;;5113722;28;20251;-77
2023/01/02 09:48:15;;;;;;;4.95;1.80;;;;;;;;;;5113756;28;20233;-77
2023/01/02 09:50:43;;;;;;;5.85;1.67;;;;;;;;;;5112454;28;20284;-77
2023/01/02 09:53:11;;;;;;;5.22;1.80;;;;;;;;;;5113633;28;20198;-78
2023/01/02 09:55:43;;;;;;;5.97;1.80;;;;;;;;;;5113714;28;20675;-77
2023/01/02 09:58:16;;;;;;;6.38;1.60;;;;;;;;;;5113081;28;20246;-77
2023/01/02 10:00:47;;;;;;;6.13;1.83;;;;;;;;;;5113474;28;20205;-77
2023/01/02 10:03:20;;;;;;;4.32;1.60;;;;;;;;;;5113163;28;20229;-77
2023/01/02 10:06:05;;;;;;;4.35;1.40;;;;;;;;;;5110968;28;20357;-78
2023/01/02 10:08:35;;;;;;;3.80;1.60;;;;;;;;;;5112666;28;20225;-79
2023/01/02 10:11:09;;;;;;;5.47;1.55;;;;;;;;;;5112832;28;20296;-78
2023/01/02 10:13:41;;;;;;;6.07;1.48;;;;;;;;;;5133211;27;20253;-78
2023/01/02 10:16:13;;;;;;;6.78;1.50;;;;;;;;;;5133126;27;20189;-78
2023/01/02 10:18:42;;;;;;;4.65;1.38;;;;;;;;;;5132452;27;20257;-77
2023/01/02 10:21:12;;;;;;;3.33;1.65;;;;;;;;;;5132159;27;20246;-79
2023/01/02 10:23:41;;;;;;;5.72;1.85;;;;;;;;;;5112147;27;20284;-78
2023/01/02 10:26:13;;;;;;;4.30;1.50;;;;;;;;;;5102876;28;20224;-77
2023/01/02 10:28:44;;;;;;;5.95;1.58;;;;;;;;;;5110239;28;20297;-78
2023/01/02 10:31:20;;;;;;;4.57;1.70;;;;;;;;;;5109103;28;20665;-78
2023/01/02 10:33:51;;;;;;;2.63;1.48;;;;;;;;;;5105089;28;20360;-78
2023/01/02 10:36:23;;;;;;;4.78;1.70;;;;;;;;;;5107975;28;20222;-78
2023/01/02 10:38:51;;;;;;;4.82;1.45;;;;;;;;;;5103077;28;20245;-77
2023/01/02 10:41:18;;;;;;;4.55;1.77;;;;;;;;;;5110573;28;20202;-78
2023/01/02 10:43:49;;;;;;;5.45;1.60;;;;;;;;;;5107464;28;20276;-77
2023/01/02 10:46:17;;;;;;;7.15;1.73;;;;;;;;;;5107537;27;20680;-78
2023/01/02 10:48:45;;;;;;;4.95;1.52;;;;;;;;;;5096632;28;20380;-78
2023/01/02 10:51:14;;;;;;;3.92;1.40;;;;;;;;;;5104114;28;20670;-78
2023/01/02 10:53:41;;;;;;;5.25;1.83;;;;;;;;;;5101967;28;20213;-78
2023/01/02 10:56:16;;;;;;;4.75;1.10;;;;;;;;;;5102573;28;20189;-77
2023/01/02 10:58:46;;;;;;;5.38;1.80;;;;;;;;;;5103837;28;20252;-77
2023/01/02 11:01:17;;;;;;;3.65;1.35;;;;;;;;;;5109847;28;20217;-78
2023/01/02 11:03:46;;;;;;;4.90;1.67;;;;;;;;;;5108509;27;20564;-78
2023/01/02 11:06:20;;;;;;;4.05;1.10;;;;;;;;;;5107374;28;20218;-77
2023/01/02 11:08:56;;;;;;;5.60;1.35;;;;;;;;;;5106756;28;20193;-78
2023/01/02 11:11:26;;;;;;;4.80;1.10;;;;;;;;;;5105062;28;20263;-78
2023/01/02 11:13:54;;;;;;;3.90;1.30;;;;;;;;;;5106854;28;20233;-77
2023/01/02 11:16:23;;;;;;;5.70;1.20;;;;;;;;;;5095668;28;20194;-78
2023/01/02 11:18:52;;;;;;;4.70;1.50;;;;;;;;;;5102607;28;20549;-77
2023/01/02 11:21:25;;;;;;;4.82;1.48;;;;;;;;;;5101004;27;20677;-79
2023/01/02 11:23:57;;;;;;;5.35;1.00;;;;;;;;;;5102998;28;20768;-78
2023/01/02 11:26:25;;;;;;;5.32;0.95;;;;;;;;;;5100928;28;20218;-78
2023/01/02 11:28:53;;;;;;;3.80;1.10;;;;;;;;;;5110551;28;20229;-78
2023/01/02 11:31:22;;;;;;;5.00;1.58;;;;;;;;;;5102377;28;20218;-78
2023/01/02 11:33:49;;;;;;;3.45;1.08;;;;;;;;;;5106936;28;20225;-78
2023/01/02 11:36:19;;;;;;;5.38;1.30;;;;;;;;;;5112015;28;20194;-78
2023/01/02 11:38:47;;;;;;;4.63;1.20;;;;;;;;;;5106562;27;20198;-79
2023/01/02 11:41:23;;;;;;;3.72;0.80;;;;;;;;;;5096144;28;20229;-81
2023/01/02 11:43:51;;;;;;;6.35;1.20;;;;;;;;;;5110193;28;20229;-79
2023/01/02 11:46:28;;;;;;;3.50;1.00;;;;;;;;;;5108729;28;20205;-79
2023/01/02 11:48:58;;;;;;;4.18;1.00;;;;;;;;;;5113648;28;20708;-80
2023/01/02 11:51:28;;;;;;;4.35;0.93;;;;;;;;;;5110752;28;20202;-79
2023/01/02 11:53:58;;;;;;;5.32;1.30;;;;;;;;;;5111105;28;20205;-79
2023/01/02 11:56:27;;;;;;;7.38;1.20;;;;;;;;;;5109383;28;20225;-79
2023/01/02 11:58:58;;;;;;;6.93;1.45;;;;;;;;;;5111637;28;20253;-80
2023/01/02 12:01:28;;;;;;;4.57;1.50;;;;;;;;;;5109299;28;20213;-80
2023/01/02 12:03:55;;;;;;;4.43;1.20;;;;;;;;;;5111392;28;20217;-79
2023/01/02 12:06:24;;;;;;;3.97;1.27;;;;;;;;;;5111228;28;20197;-79
2023/01/02 12:09:06;;;;;;;5.35;1.13;;;;;;;;;;5110705;28;20236;-79
2023/01/02 12:11:40;;;;;;;2.40;1.00;;;;;;;;;;5106845;28;20289;-78
2023/01/02 12:14:13;;;;;;;5.25;1.20;;;;;;;;;;5111193;28;20236;-78
2023/01/02 12:16:44;;;;;;;4.75;0.90;;;;;;;;;;5109658;28;20209;-77
2023/01/02 12:19:28;;;;;;;4.75;0.98;;;;;;;;;;5109213;28;20308;-77
2023/01/02 12:22:00;;;;;;;3.67;1.00;;;;;;;;;;5111072;28;20288;-77
2023/01/02 12:24:36;;;;;;;4.00;1.00;;;;;;;;;;5110932;28;20213;-77
2023/01/02 12:27:08;;;;;;;3.58;0.95;;;;;;;;;;5111040;28;20196;-78
2023/01/02 12:29:53;;;;;;;3.53;0.88;;;;;;;;;;5111181;28;20226;-76
2023/01/02 12:32:40;;;;;;;3.70;1.08;;;;;;;;;;5108173;28;20223;-78
2023/01/02 12:35:16;;;;;;;2.63;0.88;;;;;;;;;;5106814;28;20205;-78
2023/01/02 12:37:48;;;;;;;3.88;0.90;;;;;;;;;;5098594;28;20285;-78
2023/01/02 12:40:43;;;;;;;4.15;1.10;;;;;;;;;;5101284;28;20222;-77
2023/01/02 12:43:25;;;;;;;7.38;1.30;;;;;;;;;;5100992;28;20436;-77
2023/01/02 12:45:57;;;;;;;6.85;1.42;;;;;;;;;;5045652;28;20832;-77
2023/01/02 12:48:38;;;;;;;3.05;1.33;;;;;;;;;;5036949;28;20367;-76
2023/01/02 12:51:17;;;;;;;7.10;1.55;;;;;;;;;;5034243;28;20192;-77
2023/01/02 12:53:51;;;;;;;6.88;1.30;;;;;;;;;;5036930;28;20671;-74
2023/01/02 12:56:19;;;;;;;4.75;1.30;;;;;;;;;;5043501;28;20756;-76
2023/01/02 12:58:52;;;;;;;4.32;1.30;;;;;;;;;;5042603;28;20338;-75
2023/01/02 13:01:23;;;;;;;4.20;1.30;;;;;;;;;;5034080;28;20310;-76
2023/01/02 13:04:02;;;;;;;3.78;1.55;;;;;;;;;;5037921;28;20239;-76
2023/01/02 13:06:35;;;;;;;3.42;1.23;;;;;;;;;;5030073;28;20220;-76
2023/01/02 13:09:04;;;;;;;4.53;1.08;;;;;;;;;;5040548;28;20299;-75
2023/01/02 13:11:37;;;;;;;4.43;1.02;;;;;;;;;;5043207;28;20299;-76
2023/01/02 13:14:06;;;;;;;3.28;1.60;;;;;;;;;;5044418;28;20223;-76
2023/01/02 13:16:35;;;;;;;4.18;0.90;;;;;;;;;;5047793;28;20334;-77
2023/01/02 13:19:10;;;;;;;4.43;1.10;;;;;;;;;;5031243;28;20196;-77
2023/01/02 13:21:41;;;;;;;4.05;1.17;;;;;;;;;;5035678;28;20304;-77
2023/01/02 13:24:10;;;;;;;3.92;0.77;;;;;;;;;;5075110;28;20191;-77
2023/01/02 13:26:38;;;;;;;2.20;0.60;;;;;;;;;;5083816;28;20301;-77
2023/01/02 13:29:19;;;;;;;5.30;0.80;;;;;;;;;;5085124;28;20207;-76
2023/01/02 13:31:50;;;;;;;4.65;0.90;;;;;;;;;;5083165;28;20190;-77
2023/01/02 13:34:21;;;;;;;4.47;0.77;;;;;;;;;;5083322;28;20195;-76
2023/01/02 13:36:48;;;;;;;4.78;0.65;;;;;;;;;;5083665;28;20187;-77
2023/01/02 13:39:17;;;;;;;3.95;0.93;;;;;;;;;;5081750;28;20226;-77
2023/01/02 13:44:33;;;;;;;5.03;0.90;;;;;;;;;;5080373;28;20691;-76
2023/01/02 13:47:09;;;;;;;5.65;1.20;;;;;;;;;;5088621;28;20225;-77
2023/01/02 13:49:36;;;;;;;3.55;1.10;;;;;;;;;;5103765;28;20242;-77
2023/01/02 13:52:03;;;;;;;5.13;1.00;;;;;;;;;;5104877;28;20254;-77
2023/01/02 13:54:35;;;;;;;4.57;0.95;;;;;;;;;;5107499;27;20634;-77
2023/01/02 13:57:16;;;;;;;4.93;1.08;;;;;;;;;;5100735;28;20272;-78
2023/01/02 13:59:51;;;;;;;4.97;1.20;;;;;;;;;;5103352;28;20260;-78
2023/01/02 14:02:21;;;;;;;4.20;1.10;;;;;;;;;;5110654;28;20764;-77
2023/01/02 14:04:48;;;;;;;3.88;1.08;;;;;;;;;;5112769;28;20190;-77
2023/01/02 14:07:39;;;;;;;4.07;1.23;;;;;;;;;;5112956;28;20249;-78
2023/01/02 14:10:21;;;;;;;4.82;0.80;;;;;;;;;;5113756;27;20873;-79
2023/01/02 14:12:49;;;;;;;3.38;0.85;;;;;;;;;;5110960;28;20214;-78
2023/01/02 14:15:18;;;;;;;5.47;1.17;;;;;;;;;;5111900;28;20734;-79
2023/01/02 14:17:51;;;;;;;4.05;1.10;;;;;;;;;;5112507;28;20552;-78
2023/01/02 14:20:26;;;;;;;4.45;1.10;;;;;;;;;;5111347;28;20590;-78
2023/01/02 14:22:54;;;;;;;4.82;0.98;;;;;;;;;;5110278;28;20221;-78
2023/01/02 14:25:22;;;;;;;4.82;1.00;;;;;;;;;;5106704;28;20190;-78
2023/01/02 14:27:51;;;;;;;3.67;0.70;;;;;;;;;;5112505;27;20611;-78
2023/01/02 14:30:22;;;;;;;3.42;1.00;;;;;;;;;;5101529;27;20280;-78
2023/01/02 14:32:52;;;;;;;5.85;0.98;;;;;;;;;;5107640;28;20316;-76
2023/01/02 14:35:29;;;;;;;4.88;1.00;;;;;;;;;;5104489;28;20202;-76
2023/01/02 14:38:06;;;;;;;5.35;1.10;;;;;;;;;;5101812;28;20194;-77
2023/01/02 14:40:34;;;;;;;5.18;1.48;;;;;;;;;;5104669;28;20307;-78
2023/01/02 14:45:49;;;;;;;5.38;0.80;;;;;;;;;;5110630;28;20209;-77
2023/01/02 14:48:20;;;;;;;3.20;1.08;;;;;;;;;;5104619;28;20670;-77
2023/01/02 14:50:49;;;;;;;3.47;0.63;;;;;;;;;;5105463;28;20215;-77
2023/01/02 14:53:18;;;;;;;4.33;0.93;;;;;;;;;;5108281;28;20254;-79
2023/01/02 14:55:48;;;;;;;6.40;1.03;;;;;;;;;;5107858;28;20281;-78
2023/01/02 14:58:21;;;;;;;3.87;1.10;;;;;;;;;;5106678;28;20230;-77
2023/01/02 15:00:49;;;;;;;3.27;0.97;;;;;;;;;;5107257;27;20221;-78
2023/01/02 15:03:27;;;;;;;3.50;0.93;;;;;;;;;;5108729;28;20625;-77
2023/01/02 15:05:59;;;;;;;5.00;1.10;;;;;;;;;;5104953;28;20251;-77